sensor_id;sensor_type;location;lat;lon;timestamp;P1;durP1;ratioP1;P2;durP2;ratioP2
68987;SDS011;56038;46.080;11.116;2024-02-15T00:00:29;5.88;;;4.45;;
68987;SDS011;56038;46.080;11.116;2024-02-15T00:05:34;6.13;;;4.00;;
68987;SDS011;56038;46.080;11.116;2024-02-15T00:10:37;5.10;;;3.47;;
68987;SDS011;56038;46.080;11.116;2024-02-15T00:15:39;5.97;;;4.03;;
68987;SDS011;56038;46.080;11.116;2024-02-15T00:20:42;7.28;;;4.70;;
68987;SDS011;56038;46.080;11.116;2024-02-15T00:25:44;4.57;;;4.13;;
68987;SDS011;56038;46.080;11.116;2024-02-15T00:30:46;4.57;;;4.00;;
68987;SDS011;56038;46.080;11.116;2024-02-15T00:35:51;5.13;;;3.22;;
68987;SDS011;56038;46.080;11.116;2024-02-15T00:40:53;9.23;;;4.35;;
68987;SDS011;56038;46.080;11.116;2024-02-15T00:45:56;6.05;;;4.05;;
68987;SDS011;56038;46.080;11.116;2024-02-15T00:51:00;5.50;;;4.45;;
68987;SDS011;56038;46.080;11.116;2024-02-15T00:56:01;6.13;;;4.35;;
68987;SDS011;56038;46.080;11.116;2024-02-15T01:01:04;5.90;;;4.45;;
68987;SDS011;56038;46.080;11.116;2024-02-15T01:06:07;5.88;;;4.28;;
68987;SDS011;56038;46.080;11.116;2024-02-15T01:11:09;5.30;;;4.70;;
68987;SDS011;56038;46.080;11.116;2024-02-15T01:16:10;6.22;;;4.45;;
68987;SDS011;56038;46.080;11.116;2024-02-15T01:21:14;7.18;;;3.80;;
68987;SDS011;56038;46.080;11.116;2024-02-15T01:26:15;5.90;;;3.47;;
68987;SDS011;56038;46.080;11.116;2024-02-15T01:31:17;4.22;;;3.72;;
68987;SDS011;56038;46.080;11.116;2024-02-15T01:36:21;5.35;;;3.65;;
68987;SDS011;56038;46.080;11.116;2024-02-15T01:41:23;7.30;;;3.85;;
68987;SDS011;56038;46.080;11.116;2024-02-15T01:46:24;7.35;;;4.00;;
68987;SDS011;56038;46.080;11.116;2024-02-15T01:51:28;5.28;;;4.05;;
68987;SDS011;56038;46.080;11.116;2024-02-15T01:56:30;4.53;;;3.63;;
68987;SDS011;56038;46.080;11.116;2024-02-15T02:01:33;5.03;;;3.80;;
68987;SDS011;56038;46.080;11.116;2024-02-15T02:06:37;4.07;;;3.30;;
68987;SDS011;56038;46.080;11.116;2024-02-15T02:11:39;4.50;;;3.25;;
68987;SDS011;56038;46.080;11.116;2024-02-15T02:16:41;4.88;;;3.10;;
68987;SDS011;56038;46.080;11.116;2024-02-15T02:21:45;5.35;;;3.40;;
68987;SDS011;56038;46.080;11.116;2024-02-15T02:26:51;5.68;;;3.95;;
68987;SDS011;56038;46.080;11.116;2024-02-15T02:31:54;4.53;;;3.15;;
68987;SDS011;56038;46.080;11.116;2024-02-15T02:36:56;5.82;;;2.70;;
68987;SDS011;56038;46.080;11.116;2024-02-15T02:41:59;6.07;;;3.67;;
68987;SDS011;56038;46.080;11.116;2024-02-15T02:47:01;4.82;;;3.30;;
68987;SDS011;56038;46.080;11.116;2024-02-15T02:52:03;5.53;;;3.72;;
68987;SDS011;56038;46.080;11.116;2024-02-15T02:57:07;6.00;;;3.38;;
68987;SDS011;56038;46.080;11.116;2024-02-15T03:02:09;3.60;;;3.15;;
68987;SDS011;56038;46.080;11.116;2024-02-15T03:07:11;3.53;;;2.65;;
68987;SDS011;56038;46.080;11.116;2024-02-15T03:12:18;7.30;;;4.07;;
68987;SDS011;56038;46.080;11.116;2024-02-15T03:17:20;3.63;;;3.22;;
68987;SDS011;56038;46.080;11.116;2024-02-15T03:22:21;5.22;;;3.03;;
68987;SDS011;56038;46.080;11.116;2024-02-15T03:27:26;4.60;;;3.75;;
68987;SDS011;56038;46.080;11.116;2024-02-15T03:32:28;4.82;;;3.55;;
68987;SDS011;56038;46.080;11.116;2024-02-15T03:37:30;4.68;;;3.03;;
68987;SDS011;56038;46.080;11.116;2024-02-15T03:42:35;3.67;;;3.03;;
68987;SDS011;56038;46.080;11.116;2024-02-15T03:47:37;5.18;;;3.10;;
68987;SDS011;56038;46.080;11.116;2024-02-15T03:52:40;4.78;;;3.00;;
68987;SDS011;56038;46.080;11.116;2024-02-15T03:57:43;3.08;;;2.70;;
68987;SDS011;56038;46.080;11.116;2024-02-15T04:02:46;3.63;;;3.03;;
68987;SDS011;56038;46.080;11.116;2024-02-15T04:07:49;5.53;;;2.80;;
68987;SDS011;56038;46.080;11.116;2024-02-15T04:12:52;5.05;;;3.13;;
68987;SDS011;56038;46.080;11.116;2024-02-15T04:17:53;3.83;;;2.45;;
68987;SDS011;56038;46.080;11.116;2024-02-15T04:22:56;6.10;;;3.17;;
68987;SDS011;56038;46.080;11.116;2024-02-15T04:28:01;3.35;;;3.00;;
68987;SDS011;56038;46.080;11.116;2024-02-15T04:33:04;4.25;;;3.00;;
68987;SDS011;56038;46.080;11.116;2024-02-15T04:38:06;5.75;;;3.17;;
68987;SDS011;56038;46.080;11.116;2024-02-15T04:43:10;6.95;;;3.42;;
68987;SDS011;56038;46.080;11.116;2024-02-15T04:48:11;5.10;;;2.50;;
68987;SDS011;56038;46.080;11.116;2024-02-15T04:53:14;2.28;;;1.98;;
68987;SDS011;56038;46.080;11.116;2024-02-15T04:58:17;5.65;;;2.13;;
68987;SDS011;56038;46.080;11.116;2024-02-15T05:03:19;4.07;;;2.53;;
68987;SDS011;56038;46.080;11.116;2024-02-15T05:08:21;2.60;;;2.40;;
68987;SDS011;56038;46.080;11.116;2024-02-15T05:13:25;5.53;;;2.30;;
68987;SDS011;56038;46.080;11.116;2024-02-15T05:18:27;2.78;;;2.10;;
68987;SDS011;56038;46.080;11.116;2024-02-15T05:23:30;5.65;;;2.30;;
68987;SDS011;56038;46.080;11.116;2024-02-15T05:28:34;3.28;;;2.75;;
68987;SDS011;56038;46.080;11.116;2024-02-15T05:33:36;4.85;;;2.88;;
68987;SDS011;56038;46.080;11.116;2024-02-15T05:38:39;5.82;;;4.00;;
68987;SDS011;56038;46.080;11.116;2024-02-15T05:43:43;3.17;;;2.60;;
68987;SDS011;56038;46.080;11.116;2024-02-15T05:48:45;3.47;;;2.70;;
68987;SDS011;56038;46.080;11.116;2024-02-15T05:53:46;4.97;;;2.97;;
68987;SDS011;56038;46.080;11.116;2024-02-15T05:58:51;5.72;;;2.90;;
68987;SDS011;56038;46.080;11.116;2024-02-15T06:03:52;6.93;;;2.83;;
68987;SDS011;56038;46.080;11.116;2024-02-15T06:08:55;6.22;;;3.17;;
68987;SDS011;56038;46.080;11.116;2024-02-15T06:14:01;9.15;;;3.20;;
68987;SDS011;56038;46.080;11.116;2024-02-15T06:19:03;7.30;;;2.67;;
68987;SDS011;56038;46.080;11.116;2024-02-15T06:24:05;6.85;;;3.25;;
68987;SDS011;56038;46.080;11.116;2024-02-15T06:29:08;6.35;;;3.22;;
68987;SDS011;56038;46.080;11.116;2024-02-15T06:34:27;3.47;;;3.13;;
68987;SDS011;56038;46.080;11.116;2024-02-15T06:39:46;4.07;;;2.80;;
68987;SDS011;56038;46.080;11.116;2024-02-15T06:44:51;5.53;;;3.08;;
68987;SDS011;56038;46.080;11.116;2024-02-15T06:49:52;3.20;;;2.60;;
68987;SDS011;56038;46.080;11.116;2024-02-15T06:54:55;3.58;;;2.92;;
68987;SDS011;56038;46.080;11.116;2024-02-15T06:59:58;9.60;;;3.10;;
68987;SDS011;56038;46.080;11.116;2024-02-15T07:05:00;6.55;;;2.90;;
68987;SDS011;56038;46.080;11.116;2024-02-15T07:10:03;5.03;;;3.13;;
68987;SDS011;56038;46.080;11.116;2024-02-15T07:15:07;4.55;;;3.47;;
68987;SDS011;56038;46.080;11.116;2024-02-15T07:20:10;5.75;;;3.65;;
68987;SDS011;56038;46.080;11.116;2024-02-15T07:25:17;3.55;;;2.53;;
68987;SDS011;56038;46.080;11.116;2024-02-15T07:30:20;4.93;;;2.92;;
68987;SDS011;56038;46.080;11.116;2024-02-15T07:35:22;4.68;;;2.92;;
68987;SDS011;56038;46.080;11.116;2024-02-15T07:40:25;3.50;;;2.33;;
68987;SDS011;56038;46.080;11.116;2024-02-15T07:45:29;6.25;;;3.08;;
68987;SDS011;56038;46.080;11.116;2024-02-15T07:50:32;5.40;;;2.95;;
68987;SDS011;56038;46.080;11.116;2024-02-15T07:55:36;5.00;;;2.80;;
68987;SDS011;56038;46.080;11.116;2024-02-15T08:00:40;4.25;;;3.10;;
68987;SDS011;56038;46.080;11.116;2024-02-15T08:05:42;8.75;;;2.75;;
68987;SDS011;56038;46.080;11.116;2024-02-15T08:10:43;13.02;;;5.65;;
68987;SDS011;56038;46.080;11.116;2024-02-15T08:15:47;4.35;;;2.95;;
68987;SDS011;56038;46.080;11.116;2024-02-15T08:20:52;5.25;;;2.58;;
68987;SDS011;56038;46.080;11.116;2024-02-15T08:25:54;5.78;;;2.75;;
68987;SDS011;56038;46.080;11.116;2024-02-15T08:30:59;4.68;;;3.28;;
68987;SDS011;56038;46.080;11.116;2024-02-15T08:36:00;5.60;;;2.80;;
68987;SDS011;56038;46.080;11.116;2024-02-15T08:41:02;4.45;;;3.08;;
68987;SDS011;56038;46.080;11.116;2024-02-15T08:46:06;4.18;;;2.60;;
68987;SDS011;56038;46.080;11.116;2024-02-15T08:51:08;5.13;;;2.55;;
68987;SDS011;56038;46.080;11.116;2024-02-15T08:56:09;3.88;;;2.55;;
68987;SDS011;56038;46.080;11.116;2024-02-15T09:01:13;4.22;;;2.60;;
68987;SDS011;56038;46.080;11.116;2024-02-15T09:06:15;5.03;;;2.63;;
68987;SDS011;56038;46.080;11.116;2024-02-15T09:11:17;4.70;;;2.50;;
68987;SDS011;56038;46.080;11.116;2024-02-15T09:16:21;15.60;;;3.92;;
68987;SDS011;56038;46.080;11.116;2024-02-15T09:21:23;7.65;;;2.50;;
68987;SDS011;56038;46.080;11.116;2024-02-15T09:26:25;5.15;;;2.65;;
68987;SDS011;56038;46.080;11.116;2024-02-15T09:31:29;5.25;;;2.72;;
68987;SDS011;56038;46.080;11.116;2024-02-15T09:36:33;4.18;;;2.90;;
68987;SDS011;56038;46.080;11.116;2024-02-15T09:41:35;3.53;;;2.53;;
68987;SDS011;56038;46.080;11.116;2024-02-15T09:46:42;3.42;;;2.95;;
68987;SDS011;56038;46.080;11.116;2024-02-15T09:51:46;5.63;;;4.50;;
68987;SDS011;56038;46.080;11.116;2024-02-15T09:56:49;4.95;;;2.80;;
68987;SDS011;56038;46.080;11.116;2024-02-15T10:01:53;4.07;;;2.40;;
68987;SDS011;56038;46.080;11.116;2024-02-15T10:06:59;4.10;;;2.80;;
68987;SDS011;56038;46.080;11.116;2024-02-15T10:12:02;2.53;;;2.33;;
68987;SDS011;56038;46.080;11.116;2024-02-15T10:17:08;3.80;;;2.30;;
68987;SDS011;56038;46.080;11.116;2024-02-15T10:22:11;2.08;;;1.92;;
68987;SDS011;56038;46.080;11.116;2024-02-15T10:27:14;2.30;;;2.10;;
68987;SDS011;56038;46.080;11.116;2024-02-15T10:32:26;3.05;;;2.40;;
68987;SDS011;56038;46.080;11.116;2024-02-15T10:37:35;3.38;;;2.25;;
68987;SDS011;56038;46.080;11.116;2024-02-15T10:42:37;2.78;;;2.25;;
68987;SDS011;56038;46.080;11.116;2024-02-15T10:47:45;2.40;;;2.10;;
68987;SDS011;56038;46.080;11.116;2024-02-15T10:52:49;2.42;;;1.75;;
68987;SDS011;56038;46.080;11.116;2024-02-15T10:57:56;2.83;;;2.28;;
68987;SDS011;56038;46.080;11.116;2024-02-15T11:03:05;4.10;;;1.90;;
68987;SDS011;56038;46.080;11.116;2024-02-15T11:08:09;3.53;;;2.72;;
68987;SDS011;56038;46.080;11.116;2024-02-15T11:13:12;2.53;;;1.92;;
68987;SDS011;56038;46.080;11.116;2024-02-15T11:23:48;3.88;;;1.95;;
68987;SDS011;56038;46.080;11.116;2024-02-15T11:28:50;2.60;;;1.60;;
68987;SDS011;56038;46.080;11.116;2024-02-15T11:33:53;2.28;;;1.45;;
68987;SDS011;56038;46.080;11.116;2024-02-15T11:38:55;1.80;;;1.40;;
68987;SDS011;56038;46.080;11.116;2024-02-15T11:43:56;2.45;;;1.60;;
68987;SDS011;56038;46.080;11.116;2024-02-15T11:49:00;1.60;;;1.30;;
68987;SDS011;56038;46.080;11.116;2024-02-15T11:54:04;3.05;;;2.15;;
68987;SDS011;56038;46.080;11.116;2024-02-15T11:59:07;3.97;;;1.45;;
68987;SDS011;56038;46.080;11.116;2024-02-15T12:04:13;8.77;;;1.73;;
68987;SDS011;56038;46.080;11.116;2024-02-15T12:09:47;12.75;;;2.25;;
68987;SDS011;56038;46.080;11.116;2024-02-15T12:15:03;1.88;;;1.20;;
68987;SDS011;56038;46.080;11.116;2024-02-15T12:20:23;2.40;;;1.48;;
68987;SDS011;56038;46.080;11.116;2024-02-15T12:25:25;2.00;;;1.30;;
68987;SDS011;56038;46.080;11.116;2024-02-15T12:30:32;8.52;;;1.60;;
68987;SDS011;56038;46.080;11.116;2024-02-15T12:35:37;3.85;;;2.55;;
68987;SDS011;56038;46.080;11.116;2024-02-15T12:40:39;1.88;;;1.50;;
68987;SDS011;56038;46.080;11.116;2024-02-15T12:45:42;2.83;;;1.98;;
68987;SDS011;56038;46.080;11.116;2024-02-15T12:50:45;1.65;;;1.38;;
68987;SDS011;56038;46.080;11.116;2024-02-15T12:55:52;2.55;;;1.20;;
68987;SDS011;56038;46.080;11.116;2024-02-15T13:00:56;2.08;;;1.15;;
68987;SDS011;56038;46.080;11.116;2024-02-15T13:06:00;2.40;;;1.25;;
68987;SDS011;56038;46.080;11.116;2024-02-15T13:11:01;1.48;;;1.27;;
68987;SDS011;56038;46.080;11.116;2024-02-15T13:16:04;2.47;;;1.80;;
68987;SDS011;56038;46.080;11.116;2024-02-15T13:21:09;2.90;;;1.83;;
68987;SDS011;56038;46.080;11.116;2024-02-15T13:26:10;2.08;;;1.88;;
68987;SDS011;56038;46.080;11.116;2024-02-15T13:31:13;2.13;;;1.50;;
68987;SDS011;56038;46.080;11.116;2024-02-15T13:36:17;2.67;;;1.58;;
68987;SDS011;56038;46.080;11.116;2024-02-15T13:41:20;2.20;;;1.40;;
68987;SDS011;56038;46.080;11.116;2024-02-15T13:46:21;1.80;;;1.20;;
68987;SDS011;56038;46.080;11.116;2024-02-15T13:51:26;2.22;;;1.45;;
68987;SDS011;56038;46.080;11.116;2024-02-15T13:56:27;2.42;;;1.42;;
68987;SDS011;56038;46.080;11.116;2024-02-15T14:01:29;2.42;;;1.23;;
68987;SDS011;56038;46.080;11.116;2024-02-15T14:06:32;1.08;;;0.98;;
68987;SDS011;56038;46.080;11.116;2024-02-15T14:11:36;22.48;;;3.95;;
68987;SDS011;56038;46.080;11.116;2024-02-15T14:16:38;2.47;;;1.33;;
68987;SDS011;56038;46.080;11.116;2024-02-15T14:21:41;1.83;;;1.27;;
68987;SDS011;56038;46.080;11.116;2024-02-15T14:26:45;1.97;;;1.17;;
68987;SDS011;56038;46.080;11.116;2024-02-15T14:31:46;1.23;;;0.90;;
68987;SDS011;56038;46.080;11.116;2024-02-15T14:37:07;4.78;;;1.60;;
68987;SDS011;56038;46.080;11.116;2024-02-15T14:42:10;6.57;;;1.77;;
68987;SDS011;56038;46.080;11.116;2024-02-15T14:47:12;1.55;;;1.33;;
68987;SDS011;56038;46.080;11.116;2024-02-15T14:52:15;1.50;;;1.25;;
68987;SDS011;56038;46.080;11.116;2024-02-15T14:57:18;2.00;;;1.45;;
68987;SDS011;56038;46.080;11.116;2024-02-15T15:02:20;3.40;;;1.45;;
68987;SDS011;56038;46.080;11.116;2024-02-15T15:07:23;1.40;;;1.30;;
68987;SDS011;56038;46.080;11.116;2024-02-15T15:12:43;1.35;;;1.25;;
68987;SDS011;56038;46.080;11.116;2024-02-15T15:17:45;4.50;;;1.83;;
68987;SDS011;56038;46.080;11.116;2024-02-15T15:22:48;6.38;;;2.88;;
68987;SDS011;56038;46.080;11.116;2024-02-15T15:27:50;3.03;;;1.92;;
68987;SDS011;56038;46.080;11.116;2024-02-15T15:32:52;3.33;;;2.05;;
68987;SDS011;56038;46.080;11.116;2024-02-15T15:37:55;2.70;;;2.15;;
68987;SDS011;56038;46.080;11.116;2024-02-15T15:42:58;2.50;;;2.28;;
68987;SDS011;56038;46.080;11.116;2024-02-15T15:48:00;4.85;;;2.63;;
68987;SDS011;56038;46.080;11.116;2024-02-15T15:53:05;5.15;;;2.80;;
68987;SDS011;56038;46.080;11.116;2024-02-15T15:58:07;3.25;;;2.72;;
68987;SDS011;56038;46.080;11.116;2024-02-15T16:03:08;3.65;;;3.00;;
68987;SDS011;56038;46.080;11.116;2024-02-15T16:08:11;3.88;;;3.00;;
68987;SDS011;56038;46.080;11.116;2024-02-15T16:13:13;7.05;;;3.50;;
68987;SDS011;56038;46.080;11.116;2024-02-15T16:18:15;4.70;;;3.53;;
68987;SDS011;56038;46.080;11.116;2024-02-15T16:23:20;6.40;;;4.50;;
68987;SDS011;56038;46.080;11.116;2024-02-15T16:28:22;7.45;;;5.40;;
68987;SDS011;56038;46.080;11.116;2024-02-15T16:33:24;6.88;;;5.32;;
68987;SDS011;56038;46.080;11.116;2024-02-15T16:38:27;9.52;;;6.60;;
68987;SDS011;56038;46.080;11.116;2024-02-15T16:43:29;9.82;;;7.45;;
68987;SDS011;56038;46.080;11.116;2024-02-15T16:48:31;10.13;;;7.15;;
68987;SDS011;56038;46.080;11.116;2024-02-15T16:53:34;10.57;;;7.40;;
68987;SDS011;56038;46.080;11.116;2024-02-15T16:58:36;12.13;;;7.57;;
68987;SDS011;56038;46.080;11.116;2024-02-15T17:03:38;15.80;;;10.07;;
68987;SDS011;56038;46.080;11.116;2024-02-15T17:08:41;14.82;;;9.50;;
68987;SDS011;56038;46.080;11.116;2024-02-15T17:13:44;13.20;;;9.00;;
68987;SDS011;56038;46.080;11.116;2024-02-15T17:18:48;11.93;;;8.32;;
68987;SDS011;56038;46.080;11.116;2024-02-15T17:23:52;13.20;;;9.63;;
68987;SDS011;56038;46.080;11.116;2024-02-15T17:28:55;11.48;;;8.52;;
68987;SDS011;56038;46.080;11.116;2024-02-15T17:34:01;12.45;;;8.05;;
68987;SDS011;56038;46.080;11.116;2024-02-15T17:39:04;13.98;;;9.48;;
68987;SDS011;56038;46.080;11.116;2024-02-15T17:44:07;14.07;;;9.27;;
68987;SDS011;56038;46.080;11.116;2024-02-15T17:49:09;13.15;;;9.32;;
68987;SDS011;56038;46.080;11.116;2024-02-15T17:54:12;14.05;;;9.93;;
68987;SDS011;56038;46.080;11.116;2024-02-15T17:59:14;13.00;;;9.10;;
68987;SDS011;56038;46.080;11.116;2024-02-15T18:04:16;11.23;;;8.27;;
68987;SDS011;56038;46.080;11.116;2024-02-15T18:09:19;12.05;;;8.75;;
68987;SDS011;56038;46.080;11.116;2024-02-15T18:14:21;13.35;;;9.48;;
68987;SDS011;56038;46.080;11.116;2024-02-15T18:19:23;16.60;;;8.77;;
68987;SDS011;56038;46.080;11.116;2024-02-15T18:24:26;16.83;;;10.40;;
68987;SDS011;56038;46.080;11.116;2024-02-15T18:29:28;17.67;;;11.30;;
68987;SDS011;56038;46.080;11.116;2024-02-15T18:34:31;17.88;;;11.15;;
68987;SDS011;56038;46.080;11.116;2024-02-15T18:39:36;17.38;;;10.68;;
68987;SDS011;56038;46.080;11.116;2024-02-15T18:44:38;23.15;;;13.95;;
68987;SDS011;56038;46.080;11.116;2024-02-15T18:49:40;20.80;;;11.50;;
68987;SDS011;56038;46.080;11.116;2024-02-15T18:54:43;13.30;;;9.27;;
68987;SDS011;56038;46.080;11.116;2024-02-15T18:59:45;13.40;;;8.80;;
68987;SDS011;56038;46.080;11.116;2024-02-15T19:04:47;12.07;;;8.43;;
68987;SDS011;56038;46.080;11.116;2024-02-15T19:09:50;12.60;;;7.95;;
68987;SDS011;56038;46.080;11.116;2024-02-15T19:14:52;14.73;;;9.07;;
68987;SDS011;56038;46.080;11.116;2024-02-15T19:19:55;14.63;;;8.55;;
68987;SDS011;56038;46.080;11.116;2024-02-15T19:24:58;10.90;;;8.70;;
68987;SDS011;56038;46.080;11.116;2024-02-15T19:30:00;11.45;;;8.40;;
68987;SDS011;56038;46.080;11.116;2024-02-15T19:35:02;12.00;;;8.88;;
68987;SDS011;56038;46.080;11.116;2024-02-15T19:40:06;12.88;;;7.63;;
68987;SDS011;56038;46.080;11.116;2024-02-15T19:45:11;11.15;;;8.00;;
68987;SDS011;56038;46.080;11.116;2024-02-15T19:50:17;10.10;;;7.30;;
68987;SDS011;56038;46.080;11.116;2024-02-15T19:55:22;10.20;;;7.53;;
68987;SDS011;56038;46.080;11.116;2024-02-15T20:00:24;9.95;;;6.38;;
68987;SDS011;56038;46.080;11.116;2024-02-15T20:05:26;9.95;;;7.25;;
68987;SDS011;56038;46.080;11.116;2024-02-15T20:10:29;12.05;;;7.40;;
68987;SDS011;56038;46.080;11.116;2024-02-15T20:15:31;10.93;;;7.95;;
68987;SDS011;56038;46.080;11.116;2024-02-15T20:20:33;13.23;;;7.25;;
68987;SDS011;56038;46.080;11.116;2024-02-15T20:25:36;11.38;;;7.15;;
68987;SDS011;56038;46.080;11.116;2024-02-15T20:30:38;9.57;;;6.95;;
68987;SDS011;56038;46.080;11.116;2024-02-15T20:35:40;10.90;;;7.68;;
68987;SDS011;56038;46.080;11.116;2024-02-15T20:40:43;16.48;;;11.52;;
68987;SDS011;56038;46.080;11.116;2024-02-15T20:45:45;12.90;;;8.10;;
68987;SDS011;56038;46.080;11.116;2024-02-15T20:50:47;13.02;;;8.57;;
68987;SDS011;56038;46.080;11.116;2024-02-15T20:55:51;13.95;;;9.57;;
68987;SDS011;56038;46.080;11.116;2024-02-15T21:00:53;14.82;;;9.68;;
68987;SDS011;56038;46.080;11.116;2024-02-15T21:05:56;14.20;;;9.95;;
68987;SDS011;56038;46.080;11.116;2024-02-15T21:10:59;13.27;;;8.52;;
68987;SDS011;56038;46.080;11.116;2024-02-15T21:16:01;15.65;;;10.02;;
68987;SDS011;56038;46.080;11.116;2024-02-15T21:21:05;15.88;;;9.90;;
68987;SDS011;56038;46.080;11.116;2024-02-15T21:31:13;15.23;;;10.15;;
68987;SDS011;56038;46.080;11.116;2024-02-15T21:36:15;13.63;;;8.48;;
68987;SDS011;56038;46.080;11.116;2024-02-15T21:41:20;14.73;;;9.27;;
68987;SDS011;56038;46.080;11.116;2024-02-15T21:46:21;17.98;;;10.25;;
68987;SDS011;56038;46.080;11.116;2024-02-15T21:51:23;17.77;;;10.15;;
68987;SDS011;56038;46.080;11.116;2024-02-15T21:56:26;13.15;;;8.60;;
68987;SDS011;56038;46.080;11.116;2024-02-15T22:01:28;13.95;;;8.95;;
68987;SDS011;56038;46.080;11.116;2024-02-15T22:06:31;13.93;;;8.57;;
68987;SDS011;56038;46.080;11.116;2024-02-15T22:11:34;13.23;;;8.10;;
68987;SDS011;56038;46.080;11.116;2024-02-15T22:16:36;12.20;;;7.82;;
68987;SDS011;56038;46.080;11.116;2024-02-15T22:21:38;11.25;;;7.53;;
68987;SDS011;56038;46.080;11.116;2024-02-15T22:26:41;12.90;;;7.80;;
68987;SDS011;56038;46.080;11.116;2024-02-15T22:31:43;11.55;;;8.35;;
68987;SDS011;56038;46.080;11.116;2024-02-15T22:36:45;13.00;;;7.57;;
68987;SDS011;56038;46.080;11.116;2024-02-15T22:41:48;9.60;;;7.43;;
68987;SDS011;56038;46.080;11.116;2024-02-15T22:46:50;11.27;;;7.90;;
68987;SDS011;56038;46.080;11.116;2024-02-15T22:51:53;13.35;;;7.88;;
68987;SDS011;56038;46.080;11.116;2024-02-15T22:56:57;11.23;;;6.97;;
68987;SDS011;56038;46.080;11.116;2024-02-15T23:01:58;11.90;;;6.22;;
68987;SDS011;56038;46.080;11.116;2024-02-15T23:07:00;13.50;;;7.18;;
68987;SDS011;56038;46.080;11.116;2024-02-15T23:12:05;10.98;;;7.25;;
68987;SDS011;56038;46.080;11.116;2024-02-15T23:17:08;12.18;;;7.13;;
68987;SDS011;56038;46.080;11.116;2024-02-15T23:22:10;9.55;;;6.65;;
68987;SDS011;56038;46.080;11.116;2024-02-15T23:27:15;9.43;;;6.00;;
68987;SDS011;56038;46.080;11.116;2024-02-15T23:32:16;8.68;;;5.47;;
68987;SDS011;56038;46.080;11.116;2024-02-15T23:37:18;8.75;;;5.90;;
68987;SDS011;56038;46.080;11.116;2024-02-15T23:42:38;8.73;;;5.88;;
68987;SDS011;56038;46.080;11.116;2024-02-15T23:47:40;7.43;;;5.88;;
68987;SDS011;56038;46.080;11.116;2024-02-15T23:52:42;11.48;;;7.43;;
68987;SDS011;56038;46.080;11.116;2024-02-15T23:57:47;10.85;;;7.00;;
